createdAt,value
2023-01-29T00:01:56.445Z,73.40
2023-01-29T00:04:24.022Z,73.50
2023-01-29T00:06:51.031Z,73.40
2023-01-29T00:09:18.787Z,73.30
2023-01-29T00:11:45.762Z,73.40
2023-01-29T00:14:12.724Z,73.40
2023-01-29T00:16:39.863Z,73.70
2023-01-29T00:19:07.113Z,73.70
2023-01-29T00:21:34.276Z,74.00
2023-01-29T00:24:01.329Z,74.10
2023-01-29T00:26:29.010Z,74.10
2023-01-29T00:29:00.678Z,74.30
2023-01-29T00:31:28.018Z,74.50
2023-01-29T00:33:55.120Z,74.60
2023-01-29T00:36:23.288Z,74.70
2023-01-29T00:38:59.107Z,74.90
2023-01-29T00:41:52.135Z,74.90
2023-01-29T00:44:37.585Z,74.90
2023-01-29T00:47:26.018Z,74.80
2023-01-29T00:49:53.214Z,74.80
2023-01-29T00:52:25.975Z,74.80
2023-01-29T00:54:58.204Z,74.90
2023-01-29T00:57:27.234Z,74.90
2023-01-29T00:59:54.408Z,75.10
2023-01-29T01:02:40.869Z,75.10
2023-01-29T01:05:14.003Z,75.20
2023-01-29T01:07:41.630Z,75.20
2023-01-29T01:10:21.647Z,75.10
2023-01-29T01:12:59.333Z,75.00
2023-01-29T01:15:29.269Z,74.90
2023-01-29T01:17:58.877Z,74.90
2023-01-29T01:20:28.917Z,75.10
2023-01-29T01:22:56.347Z,75.50
2023-01-29T01:25:24.916Z,75.80
2023-01-29T01:27:56.689Z,75.90
2023-01-29T01:30:24.669Z,75.90
2023-01-29T01:32:51.795Z,76.00
2023-01-29T01:35:19.118Z,76.10
2023-01-29T01:37:46.172Z,76.10
2023-01-29T01:40:24.268Z,76.20
2023-01-29T01:42:55.456Z,76.50
2023-01-29T01:45:33.429Z,76.60
2023-01-29T01:48:15.501Z,76.90
2023-01-29T01:50:50.835Z,77.00
2023-01-29T01:53:25.735Z,77.20
2023-01-29T01:56:03.436Z,77.30
2023-01-29T01:58:59.633Z,77.40
2023-01-29T02:01:28.416Z,77.60
2023-01-29T02:04:28.050Z,77.60
2023-01-29T02:07:15.660Z,77.80
2023-01-29T02:09:49.142Z,78.00
2023-01-29T02:12:17.129Z,78.30
2023-01-29T02:14:44.869Z,78.50
2023-01-29T02:17:14.812Z,78.50
2023-01-29T02:20:14.905Z,78.60
2023-01-29T02:23:23.313Z,78.60
2023-01-29T02:26:09.166Z,78.40
2023-01-29T02:29:22.692Z,78.10
2023-01-29T02:32:09.490Z,78.00
2023-01-29T02:35:09.265Z,77.90
2023-01-29T02:37:48.907Z,78.10
2023-01-29T02:40:31.451Z,78.20
2023-01-29T02:43:29.126Z,78.30
2023-01-29T02:46:16.062Z,78.50
2023-01-29T02:49:01.022Z,78.40
2023-01-29T02:52:03.354Z,78.40
2023-01-29T02:54:33.260Z,78.50
2023-01-29T02:57:15.044Z,78.30
2023-01-29T02:59:51.742Z,78.30
2023-01-29T03:02:36.016Z,78.10
2023-01-29T03:05:08.549Z,77.90
2023-01-29T03:07:41.326Z,77.70
2023-01-29T03:10:18.355Z,77.50
2023-01-29T03:12:52.128Z,77.40
2023-01-29T03:15:27.305Z,77.30
2023-01-29T03:18:22.529Z,77.20
2023-01-29T03:20:58.460Z,77.20
2023-01-29T03:23:47.897Z,77.20
2023-01-29T03:26:38.975Z,77.10
2023-01-29T03:29:27.665Z,77.00
2023-01-29T03:32:09.440Z,76.80
2023-01-29T03:34:46.762Z,76.80
2023-01-29T03:37:23.249Z,76.80
2023-01-29T03:39:50.342Z,76.80
2023-01-29T03:42:38.468Z,76.80
2023-01-29T03:45:28.061Z,76.90
2023-01-29T03:48:12.194Z,77.00
2023-01-29T03:51:00.649Z,76.90
2023-01-29T03:53:46.410Z,76.90
2023-01-29T03:56:41.918Z,76.80
2023-01-29T03:59:31.527Z,76.80
2023-01-29T04:02:28.059Z,76.70
2023-01-29T04:05:02.255Z,76.50
2023-01-29T04:07:33.590Z,76.40
2023-01-29T04:10:06.724Z,76.20
2023-01-29T04:12:52.586Z,76.10
2023-01-29T04:15:22.461Z,75.90
2023-01-29T04:17:52.879Z,75.90
2023-01-29T04:20:32.265Z,75.90
2023-01-29T04:23:00.113Z,75.80
2023-01-29T04:25:32.653Z,75.80
2023-01-29T04:28:15.340Z,75.70
2023-01-29T04:30:46.390Z,75.60
2023-01-29T04:33:41.124Z,75.60
2023-01-29T04:36:14.495Z,75.50
2023-01-29T04:39:05.743Z,75.40
2023-01-29T04:41:55.855Z,75.40
2023-01-29T04:44:49.916Z,75.40
2023-01-29T04:47:20.183Z,75.40
2023-01-29T04:49:49.640Z,75.50
2023-01-29T04:52:45.175Z,75.60
2023-01-29T04:55:37.040Z,75.80
2023-01-29T04:58:14.539Z,76.10
2023-01-29T05:00:44.427Z,76.10
2023-01-29T05:03:15.927Z,76.20
2023-01-29T05:05:48.113Z,76.30
2023-01-29T05:08:19.524Z,76.20
2023-01-29T05:10:49.667Z,76.30
2023-01-29T05:13:19.527Z,76.30
2023-01-29T05:16:19.289Z,76.40
2023-01-29T05:18:46.895Z,76.40
2023-01-29T05:21:13.859Z,76.20
2023-01-29T05:23:53.406Z,76.20
2023-01-29T05:26:39.773Z,76.30
2023-01-29T05:29:06.753Z,76.30
2023-01-29T05:31:33.747Z,76.20
2023-01-29T05:34:00.715Z,76.20
2023-01-29T05:36:27.772Z,76.40
2023-01-29T05:38:54.728Z,76.50
2023-01-29T05:41:21.663Z,76.70
2023-01-29T05:43:48.612Z,76.70
2023-01-29T05:46:15.567Z,76.90
2023-01-29T05:48:42.524Z,77.00
2023-01-29T05:51:09.560Z,77.10
2023-01-29T05:53:36.612Z,77.10
2023-01-29T05:56:04.738Z,77.10
2023-01-29T05:58:32.888Z,77.10
2023-01-29T06:01:12.291Z,77.10
2023-01-29T06:03:39.288Z,77.10
2023-01-29T06:06:06.701Z,77.00
2023-01-29T06:08:33.780Z,77.20
2023-01-29T06:11:00.887Z,77.30
2023-01-29T06:13:27.839Z,77.40
2023-01-29T06:15:55.872Z,77.50
2023-01-29T06:18:22.768Z,77.50
2023-01-29T06:20:49.699Z,77.70
2023-01-29T06:23:16.825Z,77.60
2023-01-29T06:25:43.878Z,77.70
2023-01-29T06:28:10.814Z,77.70
2023-01-29T06:30:37.748Z,77.70
2023-01-29T06:33:04.660Z,77.80
2023-01-29T06:35:31.574Z,77.70
2023-01-29T06:37:58.471Z,77.80
2023-01-29T06:40:26.228Z,77.90
2023-01-29T06:42:53.101Z,77.90
2023-01-29T06:45:20.069Z,78.00
2023-01-29T06:47:47.027Z,78.10
2023-01-29T06:50:14.086Z,78.20
2023-01-29T06:52:41.114Z,78.20
2023-01-29T06:55:08.543Z,78.20
2023-01-29T06:57:35.531Z,78.30
2023-01-29T07:00:02.433Z,78.30
2023-01-29T07:02:29.478Z,78.20
2023-01-29T07:04:56.407Z,78.10
2023-01-29T07:07:23.333Z,78.10
2023-01-29T07:09:50.317Z,78.20
2023-01-29T07:12:17.254Z,78.10
2023-01-29T07:14:44.199Z,78.00
2023-01-29T07:17:11.116Z,78.00
2023-01-29T07:19:38.047Z,77.90
2023-01-29T07:22:05.784Z,77.70
2023-01-29T07:24:33.050Z,77.70
2023-01-29T07:26:59.973Z,77.50
2023-01-29T07:29:27.028Z,77.40
2023-01-29T07:31:53.996Z,77.20
2023-01-29T07:34:21.018Z,77.00
2023-01-29T07:36:48.018Z,76.90
2023-01-29T07:39:15.031Z,76.80
2023-01-29T07:41:42.063Z,76.80
2023-01-29T07:44:16.296Z,76.60
2023-01-29T07:46:43.738Z,76.60
2023-01-29T07:49:10.691Z,76.70
2023-01-29T07:51:37.626Z,77.20
2023-01-29T07:54:05.232Z,75.10
2023-01-29T07:56:35.887Z,71.00
2023-01-29T07:59:03.574Z,66.40
2023-01-29T08:01:31.528Z,62.50
2023-01-29T08:03:58.923Z,59.60
2023-01-29T08:06:26.032Z,57.60
2023-01-29T08:08:53.683Z,55.60
2023-01-29T08:11:20.742Z,53.50
2023-01-29T08:13:47.764Z,52.20
2023-01-29T08:16:14.872Z,51.30
2023-01-29T08:18:46.331Z,50.60
2023-01-29T08:21:15.032Z,50.70
2023-01-29T08:23:41.960Z,50.10
2023-01-29T08:26:09.301Z,49.90
2023-01-29T08:28:38.719Z,49.70
2023-01-29T08:31:13.895Z,49.90
2023-01-29T08:33:40.817Z,50.00
2023-01-29T08:36:08.986Z,50.50
2023-01-29T08:38:36.317Z,50.80
2023-01-29T08:41:03.607Z,51.00
2023-01-29T08:43:30.695Z,50.90
2023-01-29T08:45:57.665Z,51.00
2023-01-29T08:48:25.261Z,50.70
2023-01-29T08:50:52.182Z,50.70
2023-01-29T08:53:24.379Z,51.20
2023-01-29T08:55:51.774Z,51.10
2023-01-29T08:58:19.084Z,51.30
2023-01-29T09:00:46.815Z,51.10
2023-01-29T09:03:14.153Z,50.10
2023-01-29T09:05:41.983Z,50.20
2023-01-29T09:08:09.983Z,49.80
2023-01-29T09:10:37.152Z,49.40
2023-01-29T09:13:04.923Z,48.60
2023-01-29T09:15:32.019Z,48.00
2023-01-29T09:18:02.419Z,47.30
2023-01-29T09:20:29.323Z,46.70
2023-01-29T09:22:56.787Z,45.20
2023-01-29T09:25:23.788Z,44.30
2023-01-29T09:27:50.836Z,43.80
2023-01-29T09:30:18.377Z,42.30
2023-01-29T09:32:54.139Z,40.50
2023-01-29T09:35:25.053Z,39.70
2023-01-29T09:37:52.570Z,38.30
2023-01-29T09:40:42.761Z,37.40
2023-01-29T09:43:18.658Z,35.90
2023-01-29T09:46:15.291Z,35.20
2023-01-29T09:48:44.269Z,34.20
2023-01-29T09:51:23.798Z,35.00
2023-01-29T09:54:18.323Z,34.40
2023-01-29T09:56:46.448Z,33.80
2023-01-29T09:59:15.192Z,34.50
2023-01-29T10:02:08.217Z,34.00
2023-01-29T10:05:04.842Z,32.60
2023-01-29T10:08:00.733Z,33.60
2023-01-29T10:10:40.222Z,36.40
2023-01-29T10:13:32.865Z,38.80
2023-01-29T10:16:07.828Z,38.70
2023-01-29T10:19:07.939Z,37.90
2023-01-29T10:21:56.355Z,38.70
2023-01-29T10:24:50.230Z,40.20
2023-01-29T10:27:18.951Z,40.40
2023-01-29T10:29:49.170Z,38.40
2023-01-29T10:32:19.024Z,36.90
2023-01-29T10:34:52.365Z,34.40
2023-01-29T10:37:40.740Z,34.30
2023-01-29T10:40:34.153Z,34.70
2023-01-29T10:43:10.463Z,34.30
2023-01-29T10:45:42.311Z,33.90
2023-01-29T10:48:27.856Z,32.90
2023-01-29T10:50:54.636Z,31.40
2023-01-29T10:53:59.488Z,30.60
2023-01-29T10:56:41.380Z,30.20
2023-01-29T10:59:45.197Z,30.30
2023-01-29T11:02:21.258Z,29.30
2023-01-29T11:04:48.911Z,29.10
2023-01-29T11:07:19.753Z,29.40
2023-01-29T11:10:09.784Z,29.20
2023-01-29T11:12:38.839Z,29.10
2023-01-29T11:15:19.867Z,29.00
2023-01-29T11:18:16.189Z,29.40
2023-01-29T11:20:44.696Z,28.90
2023-01-29T11:23:31.909Z,29.10
2023-01-29T11:26:00.350Z,29.50
2023-01-29T11:28:47.645Z,29.60
2023-01-29T11:31:37.156Z,28.50
2023-01-29T11:34:19.662Z,28.60
2023-01-29T11:36:47.050Z,28.40
2023-01-29T11:39:16.013Z,29.00
2023-01-29T11:41:44.274Z,29.70
2023-01-29T11:44:34.763Z,29.70
2023-01-29T11:47:31.166Z,29.90
2023-01-29T11:50:01.536Z,29.60
2023-01-29T11:52:37.464Z,29.00
2023-01-29T11:55:06.987Z,28.40
2023-01-29T11:57:41.792Z,28.90
2023-01-29T12:00:38.237Z,29.90
2023-01-29T12:03:23.237Z,30.00
2023-01-29T12:05:58.430Z,30.50
2023-01-29T12:08:28.655Z,30.80
2023-01-29T12:11:24.830Z,30.30
2023-01-29T12:13:56.349Z,29.50
2023-01-29T12:16:49.045Z,29.40
2023-01-29T12:19:22.034Z,29.80
2023-01-29T12:22:02.958Z,30.00
2023-01-29T12:24:57.027Z,30.80
2023-01-29T12:27:49.565Z,30.30
2023-01-29T12:30:22.260Z,30.60
2023-01-29T12:33:05.176Z,30.30
2023-01-29T12:35:47.981Z,29.50
2023-01-29T12:38:17.825Z,29.50
2023-01-29T12:40:55.305Z,30.10
2023-01-29T12:43:27.832Z,30.00
2023-01-29T12:45:55.586Z,29.90
2023-01-29T12:48:27.746Z,30.50
2023-01-29T12:50:55.709Z,30.50
2023-01-29T12:53:27.696Z,29.70
2023-01-29T12:55:59.084Z,29.90
2023-01-29T12:58:46.244Z,29.30
2023-01-29T13:01:28.520Z,29.50
2023-01-29T13:03:55.305Z,30.20
2023-01-29T13:06:36.755Z,29.80
2023-01-29T13:09:06.714Z,29.50
2023-01-29T13:11:39.692Z,30.20
2023-01-29T13:14:14.256Z,30.40
2023-01-29T13:16:43.117Z,31.30
2023-01-29T13:19:22.140Z,31.80
2023-01-29T13:21:49.081Z,32.40
2023-01-29T13:24:20.231Z,32.90
2023-01-29T13:26:47.957Z,33.60
2023-01-29T13:29:29.096Z,33.80
2023-01-29T13:31:56.990Z,33.70
2023-01-29T13:34:29.289Z,33.10
2023-01-29T13:36:57.414Z,33.10
2023-01-29T13:39:26.885Z,32.30
2023-01-29T13:41:55.860Z,32.30
2023-01-29T13:44:49.398Z,31.90
2023-01-29T13:47:26.597Z,34.00
2023-01-29T13:50:01.410Z,34.60
2023-01-29T13:52:31.862Z,35.50
2023-01-29T13:55:19.314Z,36.00
2023-01-29T13:57:46.318Z,35.70
2023-01-29T14:00:22.405Z,35.60
2023-01-29T14:02:55.470Z,35.40
2023-01-29T14:05:31.741Z,35.80
2023-01-29T14:07:59.582Z,36.20
2023-01-29T14:10:27.621Z,36.40
2023-01-29T14:13:14.392Z,36.50
2023-01-29T14:15:42.171Z,36.50
2023-01-29T14:18:09.184Z,37.20
2023-01-29T14:20:48.165Z,37.10
2023-01-29T14:23:30.656Z,37.60
2023-01-29T14:26:00.164Z,38.00
2023-01-29T14:28:30.755Z,38.10
2023-01-29T14:30:58.330Z,37.80
2023-01-29T14:33:41.861Z,37.50
2023-01-29T14:36:13.472Z,37.00
2023-01-29T14:38:46.603Z,37.20
2023-01-29T14:41:28.817Z,36.80
2023-01-29T14:44:33.268Z,36.90
2023-01-29T14:47:00.243Z,36.50
2023-01-29T14:49:49.536Z,37.40
2023-01-29T14:52:17.079Z,38.40
2023-01-29T14:54:46.211Z,39.10
2023-01-29T14:57:16.859Z,40.00
2023-01-29T14:59:53.711Z,40.80
2023-01-29T15:02:25.203Z,41.10
2023-01-29T15:04:58.134Z,40.90
2023-01-29T15:07:38.595Z,41.00
2023-01-29T15:10:23.201Z,42.60
2023-01-29T15:13:03.419Z,44.30
2023-01-29T15:15:48.937Z,45.90
2023-01-29T15:18:20.667Z,47.70
2023-01-29T15:20:47.710Z,48.60
2023-01-29T15:23:33.843Z,49.70
2023-01-29T15:26:04.266Z,51.00
2023-01-29T15:28:33.450Z,51.10
2023-01-29T15:31:01.784Z,51.80
2023-01-29T15:33:29.000Z,52.50
2023-01-29T15:36:06.942Z,53.20
2023-01-29T15:38:34.427Z,53.40
2023-01-29T15:41:03.081Z,53.80
2023-01-29T15:43:31.074Z,54.30
2023-01-29T15:46:02.568Z,55.10
2023-01-29T15:48:37.934Z,55.60
2023-01-29T15:51:10.400Z,56.50
2023-01-29T15:53:49.373Z,56.70
2023-01-29T15:56:20.067Z,57.40
2023-01-29T15:58:51.954Z,57.50
2023-01-29T16:01:19.172Z,58.00
2023-01-29T16:03:50.037Z,58.40
2023-01-29T16:06:17.189Z,59.30
2023-01-29T16:08:49.660Z,58.70
2023-01-29T16:11:18.995Z,59.10
2023-01-29T16:13:50.037Z,59.50
2023-01-29T16:16:21.960Z,60.10
2023-01-29T16:19:00.055Z,60.20
2023-01-29T16:21:35.558Z,60.60
2023-01-29T16:24:06.258Z,61.10
2023-01-29T16:26:37.529Z,61.30
2023-01-29T16:29:11.253Z,61.60
2023-01-29T16:31:39.815Z,62.20
2023-01-29T16:34:19.917Z,62.50
2023-01-29T16:36:49.106Z,63.20
2023-01-29T16:39:25.053Z,63.30
2023-01-29T16:42:17.560Z,63.80
2023-01-29T16:45:02.773Z,64.40
2023-01-29T16:47:43.725Z,64.40
2023-01-29T16:50:53.947Z,65.00
2023-01-29T16:53:24.634Z,65.40
2023-01-29T16:55:52.628Z,65.40
2023-01-29T16:58:24.665Z,65.80
2023-01-29T17:01:09.267Z,66.30
2023-01-29T17:03:37.439Z,67.00
2023-01-29T17:06:21.171Z,66.90
2023-01-29T17:08:48.453Z,67.90
2023-01-29T17:11:30.721Z,67.60
2023-01-29T17:13:58.159Z,68.40
2023-01-29T17:16:33.910Z,68.40
2023-01-29T17:19:01.380Z,69.00
2023-01-29T17:21:30.461Z,69.10
2023-01-29T17:23:57.346Z,69.30
2023-01-29T17:26:24.957Z,69.70
2023-01-29T17:28:53.489Z,69.90
2023-01-29T17:31:21.664Z,70.00
2023-01-29T17:33:48.663Z,70.00
2023-01-29T17:36:17.374Z,70.20
2023-01-29T17:38:44.977Z,70.40
2023-01-29T17:41:30.509Z,70.40
2023-01-29T17:43:57.485Z,70.70
2023-01-29T17:46:24.513Z,70.60
2023-01-29T17:48:52.373Z,70.80
2023-01-29T17:51:19.306Z,70.80
2023-01-29T17:53:47.353Z,71.10
2023-01-29T17:56:32.440Z,71.20
2023-01-29T17:58:59.639Z,71.70
2023-01-29T18:01:26.682Z,71.50
2023-01-29T18:03:53.657Z,71.90
2023-01-29T18:06:28.394Z,72.50
2023-01-29T18:08:56.505Z,72.60
2023-01-29T18:11:23.556Z,72.90
2023-01-29T18:13:50.578Z,73.10
2023-01-29T18:16:22.164Z,73.30
2023-01-29T18:18:50.897Z,73.50
2023-01-29T18:21:18.070Z,73.60
2023-01-29T18:23:45.024Z,73.70
2023-01-29T18:26:16.927Z,73.80
2023-01-29T18:28:43.943Z,74.10
2023-01-29T18:31:13.042Z,74.10
2023-01-29T18:33:40.841Z,74.20
2023-01-29T18:36:08.401Z,74.30
2023-01-29T18:38:35.421Z,74.40
2023-01-29T18:41:11.420Z,74.50
2023-01-29T18:43:39.377Z,75.00
2023-01-29T18:46:07.525Z,75.00
2023-01-29T18:48:35.409Z,75.20
2023-01-29T18:51:02.342Z,75.30
2023-01-29T18:53:29.251Z,75.30
2023-01-29T18:56:04.227Z,75.40
2023-01-29T18:58:35.011Z,75.50
2023-01-29T19:01:09.428Z,75.50
2023-01-29T19:03:37.403Z,75.80
2023-01-29T19:06:06.370Z,76.10
2023-01-29T19:08:33.748Z,76.20
2023-01-29T19:11:03.890Z,76.30
2023-01-29T19:13:31.877Z,76.50
2023-01-29T19:15:59.132Z,76.80
2023-01-29T19:18:26.891Z,76.90
2023-01-29T19:20:54.822Z,76.80
2023-01-29T19:23:22.135Z,77.00
2023-01-29T19:25:49.106Z,77.10
2023-01-29T19:28:16.085Z,77.10
2023-01-29T19:30:43.176Z,77.30
2023-01-29T19:33:10.668Z,77.60
2023-01-29T19:35:37.656Z,77.80
2023-01-29T19:38:05.105Z,77.70
2023-01-29T19:40:32.125Z,77.80
2023-01-29T19:42:59.498Z,77.80
2023-01-29T19:45:49.183Z,78.00
2023-01-29T19:48:16.999Z,77.90
2023-01-29T19:50:43.908Z,78.00
2023-01-29T19:53:10.842Z,78.30
2023-01-29T19:55:38.596Z,79.10
2023-01-29T19:58:05.526Z,78.60
2023-01-29T20:00:32.554Z,78.80
2023-01-29T20:02:59.523Z,79.00
2023-01-29T20:05:27.170Z,79.30
2023-01-29T20:07:54.502Z,79.20
2023-01-29T20:10:21.675Z,79.30
2023-01-29T20:12:48.639Z,79.60
2023-01-29T20:15:16.322Z,79.40
2023-01-29T20:17:45.607Z,79.50
2023-01-29T20:20:12.631Z,79.60
2023-01-29T20:22:39.436Z,79.60
2023-01-29T20:25:06.487Z,79.60
2023-01-29T20:27:33.267Z,79.70
2023-01-29T20:30:00.158Z,79.70
2023-01-29T20:32:26.972Z,79.70
2023-01-29T20:34:54.018Z,79.80
2023-01-29T20:37:20.904Z,79.80
2023-01-29T20:39:47.709Z,79.90
2023-01-29T20:42:14.572Z,80.10
2023-01-29T20:44:42.012Z,80.20
2023-01-29T20:47:08.955Z,80.30
2023-01-29T20:49:35.787Z,80.40
2023-01-29T20:52:02.697Z,80.50
2023-01-29T20:54:30.125Z,80.40
2023-01-29T20:56:57.164Z,80.50
2023-01-29T20:59:24.108Z,80.40
2023-01-29T21:01:51.119Z,80.30
2023-01-29T21:04:17.972Z,80.30
2023-01-29T21:06:44.777Z,80.30
2023-01-29T21:09:11.568Z,80.50
2023-01-29T21:11:38.399Z,80.40
2023-01-29T21:14:05.267Z,80.50
2023-01-29T21:16:32.226Z,80.60
2023-01-29T21:18:59.855Z,80.60
2023-01-29T21:21:26.983Z,81.00
2023-01-29T21:23:54.312Z,80.70
2023-01-29T21:26:23.338Z,80.80
2023-01-29T21:28:50.414Z,80.90
2023-01-29T21:31:17.740Z,81.30
2023-01-29T21:33:45.037Z,81.50
2023-01-29T21:36:12.174Z,81.40
2023-01-29T21:38:39.762Z,81.40
2023-01-29T21:41:09.761Z,81.70
2023-01-29T21:43:37.837Z,81.70
2023-01-29T21:46:11.847Z,81.90
2023-01-29T21:48:39.989Z,82.00
2023-01-29T21:51:07.450Z,83.00
2023-01-29T21:53:34.972Z,82.30
2023-01-29T21:56:04.311Z,82.20
2023-01-29T21:58:32.178Z,82.20
2023-01-29T22:01:35.125Z,82.10
2023-01-29T22:03:47.417Z,82.00
2023-01-29T22:06:15.172Z,82.10
2023-01-29T22:08:42.128Z,82.30
2023-01-29T22:11:10.050Z,82.50
2023-01-29T22:13:37.179Z,82.50
2023-01-29T22:16:06.001Z,82.50
2023-01-29T22:18:33.726Z,82.70
2023-01-29T22:21:02.933Z,82.60
2023-01-29T22:23:31.035Z,82.50
2023-01-29T22:26:05.813Z,82.60
2023-01-29T22:28:32.746Z,82.60
2023-01-29T22:31:04.097Z,82.50
2023-01-29T22:33:31.400Z,82.70
2023-01-29T22:35:58.291Z,82.80
2023-01-29T22:38:25.492Z,82.70
2023-01-29T22:40:53.977Z,82.70
2023-01-29T22:43:21.526Z,82.80
2023-01-29T22:45:48.696Z,83.20
2023-01-29T22:48:15.809Z,83.10
2023-01-29T22:50:42.780Z,83.10
2023-01-29T22:53:09.863Z,82.90
2023-01-29T22:55:36.769Z,82.90
2023-01-29T22:58:03.640Z,83.00
2023-01-29T23:00:30.557Z,82.70
2023-01-29T23:02:57.533Z,82.60
2023-01-29T23:05:24.550Z,82.50
2023-01-29T23:07:51.514Z,82.40
2023-01-29T23:10:18.819Z,82.20
2023-01-29T23:12:45.895Z,82.10
2023-01-29T23:15:12.817Z,81.90
2023-01-29T23:17:39.820Z,81.90
2023-01-29T23:20:08.294Z,81.90
2023-01-29T23:22:35.409Z,81.80
2023-01-29T23:25:02.836Z,81.70
2023-01-29T23:27:29.805Z,81.70
2023-01-29T23:29:56.691Z,81.40
2023-01-29T23:32:23.696Z,81.40
2023-01-29T23:34:50.584Z,81.10
2023-01-29T23:37:17.501Z,81.00
2023-01-29T23:39:44.420Z,80.90
2023-01-29T23:42:11.308Z,80.80
2023-01-29T23:44:40.171Z,80.80
2023-01-29T23:47:07.755Z,80.90
2023-01-29T23:49:34.947Z,81.00
2023-01-29T23:52:02.259Z,81.00
2023-01-29T23:54:29.285Z,81.00
2023-01-29T23:56:56.200Z,80.90
2023-01-29T23:59:23.163Z,80.70
